sensor_id;sensor_type;location;lat;lon;timestamp;temperature;humidity
1700;DHT22;847;48.058;7.810;2024-02-04T00:00:56;8.00;99.00
1700;DHT22;847;48.058;7.810;2024-02-04T00:03:23;8.00;99.00
1700;DHT22;847;48.058;7.810;2024-02-04T00:05:50;8.00;99.00
1700;DHT22;847;48.058;7.810;2024-02-04T00:08:16;8.00;99.00
1700;DHT22;847;48.058;7.810;2024-02-04T00:10:43;8.00;99.00
1700;DHT22;847;48.058;7.810;2024-02-04T00:13:10;8.00;99.00
1700;DHT22;847;48.058;7.810;2024-02-04T00:15:38;8.00;99.00
1700;DHT22;847;48.058;7.810;2024-02-04T00:18:05;8.00;99.00
1700;DHT22;847;48.058;7.810;2024-02-04T00:20:32;8.00;99.00
1700;DHT22;847;48.058;7.810;2024-02-04T00:22:59;8.00;99.00
1700;DHT22;847;48.058;7.810;2024-02-04T00:25:25;7.90;99.00
1700;DHT22;847;48.058;7.810;2024-02-04T00:27:54;7.90;99.00
1700;DHT22;847;48.058;7.810;2024-02-04T00:30:21;7.90;99.00
1700;DHT22;847;48.058;7.810;2024-02-04T00:32:49;7.90;99.00
1700;DHT22;847;48.058;7.810;2024-02-04T00:35:16;7.90;99.00
1700;DHT22;847;48.058;7.810;2024-02-04T00:37:42;8.00;99.00
1700;DHT22;847;48.058;7.810;2024-02-04T00:40:10;8.00;99.00
1700;DHT22;847;48.058;7.810;2024-02-04T00:42:37;8.00;99.00
1700;DHT22;847;48.058;7.810;2024-02-04T00:45:04;8.00;99.00
1700;DHT22;847;48.058;7.810;2024-02-04T00:47:31;8.00;99.00
1700;DHT22;847;48.058;7.810;2024-02-04T00:49:59;7.90;99.00
1700;DHT22;847;48.058;7.810;2024-02-04T00:52:26;8.00;99.00
1700;DHT22;847;48.058;7.810;2024-02-04T00:54:52;8.00;99.00
1700;DHT22;847;48.058;7.810;2024-02-04T00:57:19;8.00;99.00
1700;DHT22;847;48.058;7.810;2024-02-04T00:59:46;8.00;99.00
1700;DHT22;847;48.058;7.810;2024-02-04T01:02:13;8.00;99.00
1700;DHT22;847;48.058;7.810;2024-02-04T01:04:39;8.00;99.00
1700;DHT22;847;48.058;7.810;2024-02-04T01:07:08;8.00;99.00
1700;DHT22;847;48.058;7.810;2024-02-04T01:09:34;8.00;99.00
1700;DHT22;847;48.058;7.810;2024-02-04T01:12:01;8.00;99.00
1700;DHT22;847;48.058;7.810;2024-02-04T01:14:28;7.90;99.00
1700;DHT22;847;48.058;7.810;2024-02-04T01:16:55;7.90;99.00
1700;DHT22;847;48.058;7.810;2024-02-04T01:19:22;7.90;99.00
1700;DHT22;847;48.058;7.810;2024-02-04T01:21:48;7.90;99.00
1700;DHT22;847;48.058;7.810;2024-02-04T01:24:17;7.90;99.00
1700;DHT22;847;48.058;7.810;2024-02-04T01:26:43;7.90;99.00
1700;DHT22;847;48.058;7.810;2024-02-04T01:29:10;7.90;99.00
1700;DHT22;847;48.058;7.810;2024-02-04T01:31:37;7.90;99.00
1700;DHT22;847;48.058;7.810;2024-02-04T01:34:03;7.90;99.00
1700;DHT22;847;48.058;7.810;2024-02-04T01:36:30;7.80;99.00
1700;DHT22;847;48.058;7.810;2024-02-04T01:38:57;7.80;99.00
1700;DHT22;847;48.058;7.810;2024-02-04T01:41:25;7.90;99.00
1700;DHT22;847;48.058;7.810;2024-02-04T01:43:53;7.80;99.00
1700;DHT22;847;48.058;7.810;2024-02-04T01:46:20;7.80;99.00
1700;DHT22;847;48.058;7.810;2024-02-04T01:48:48;7.80;99.00
1700;DHT22;847;48.058;7.810;2024-02-04T01:51:17;7.70;99.00
1700;DHT22;847;48.058;7.810;2024-02-04T01:53:47;7.70;99.00
1700;DHT22;847;48.058;7.810;2024-02-04T01:56:14;7.70;99.00
1700;DHT22;847;48.058;7.810;2024-02-04T01:58:43;7.70;99.00
1700;DHT22;847;48.058;7.810;2024-02-04T02:01:10;7.70;99.00
1700;DHT22;847;48.058;7.810;2024-02-04T02:03:38;7.70;99.00
1700;DHT22;847;48.058;7.810;2024-02-04T02:06:06;7.70;99.00
1700;DHT22;847;48.058;7.810;2024-02-04T02:08:32;7.70;99.00
1700;DHT22;847;48.058;7.810;2024-02-04T02:11:05;7.70;99.00
1700;DHT22;847;48.058;7.810;2024-02-04T02:13:35;7.70;99.00
1700;DHT22;847;48.058;7.810;2024-02-04T02:16:07;7.70;99.00
1700;DHT22;847;48.058;7.810;2024-02-04T02:18:44;7.70;99.00
1700;DHT22;847;48.058;7.810;2024-02-04T02:21:28;7.60;99.00
1700;DHT22;847;48.058;7.810;2024-02-04T02:24:04;7.60;99.00
1700;DHT22;847;48.058;7.810;2024-02-04T02:26:36;7.50;99.00
1700;DHT22;847;48.058;7.810;2024-02-04T02:29:04;7.50;99.00
1700;DHT22;847;48.058;7.810;2024-02-04T02:31:31;7.50;99.00
1700;DHT22;847;48.058;7.810;2024-02-04T02:33:58;7.50;99.00
1700;DHT22;847;48.058;7.810;2024-02-04T02:36:26;7.50;99.00
1700;DHT22;847;48.058;7.810;2024-02-04T02:39:01;7.40;99.00
1700;DHT22;847;48.058;7.810;2024-02-04T02:41:31;7.40;99.00
1700;DHT22;847;48.058;7.810;2024-02-04T02:44:00;7.30;99.00
1700;DHT22;847;48.058;7.810;2024-02-04T02:46:28;7.30;99.00
1700;DHT22;847;48.058;7.810;2024-02-04T02:48:54;7.30;99.00
1700;DHT22;847;48.058;7.810;2024-02-04T02:51:21;7.30;99.00
1700;DHT22;847;48.058;7.810;2024-02-04T02:53:48;7.30;99.00
1700;DHT22;847;48.058;7.810;2024-02-04T02:56:15;7.30;99.00
1700;DHT22;847;48.058;7.810;2024-02-04T02:58:41;7.30;99.00
1700;DHT22;847;48.058;7.810;2024-02-04T03:01:10;7.30;99.00
1700;DHT22;847;48.058;7.810;2024-02-04T03:03:36;7.30;99.00
1700;DHT22;847;48.058;7.810;2024-02-04T03:06:06;7.30;99.00
1700;DHT22;847;48.058;7.810;2024-02-04T03:08:33;7.30;99.00
1700;DHT22;847;48.058;7.810;2024-02-04T03:11:00;7.30;99.00
1700;DHT22;847;48.058;7.810;2024-02-04T03:13:28;7.30;99.00
1700;DHT22;847;48.058;7.810;2024-02-04T03:15:56;7.30;99.00
1700;DHT22;847;48.058;7.810;2024-02-04T03:18:24;7.30;99.00
1700;DHT22;847;48.058;7.810;2024-02-04T03:20:50;7.30;99.00
1700;DHT22;847;48.058;7.810;2024-02-04T03:23:17;7.30;99.00
1700;DHT22;847;48.058;7.810;2024-02-04T03:25:45;7.40;99.00
1700;DHT22;847;48.058;7.810;2024-02-04T03:28:11;7.40;99.00
1700;DHT22;847;48.058;7.810;2024-02-04T03:30:38;7.40;99.00
1700;DHT22;847;48.058;7.810;2024-02-04T03:33:05;7.30;99.00
1700;DHT22;847;48.058;7.810;2024-02-04T03:35:33;7.30;99.00
1700;DHT22;847;48.058;7.810;2024-02-04T03:38:01;7.30;99.00
1700;DHT22;847;48.058;7.810;2024-02-04T03:40:28;7.20;99.00
1700;DHT22;847;48.058;7.810;2024-02-04T03:42:55;7.20;99.00
1700;DHT22;847;48.058;7.810;2024-02-04T03:45:22;7.30;99.00
1700;DHT22;847;48.058;7.810;2024-02-04T03:47:48;7.30;99.00
1700;DHT22;847;48.058;7.810;2024-02-04T03:50:15;7.30;99.00
1700;DHT22;847;48.058;7.810;2024-02-04T03:52:43;7.30;99.00
1700;DHT22;847;48.058;7.810;2024-02-04T03:55:10;7.30;99.00
1700;DHT22;847;48.058;7.810;2024-02-04T03:57:37;7.30;99.00
1700;DHT22;847;48.058;7.810;2024-02-04T04:00:04;7.30;99.00
1700;DHT22;847;48.058;7.810;2024-02-04T04:02:32;7.30;99.00
1700;DHT22;847;48.058;7.810;2024-02-04T04:04:58;7.30;99.00
1700;DHT22;847;48.058;7.810;2024-02-04T04:07:25;7.30;99.00
1700;DHT22;847;48.058;7.810;2024-02-04T04:09:53;7.30;99.00
1700;DHT22;847;48.058;7.810;2024-02-04T04:12:20;7.30;99.00
1700;DHT22;847;48.058;7.810;2024-02-04T04:14:47;7.30;99.00
1700;DHT22;847;48.058;7.810;2024-02-04T04:17:13;7.30;99.00
1700;DHT22;847;48.058;7.810;2024-02-04T04:19:40;7.30;99.00
1700;DHT22;847;48.058;7.810;2024-02-04T04:22:07;7.30;99.00
1700;DHT22;847;48.058;7.810;2024-02-04T04:24:34;7.30;99.00
1700;DHT22;847;48.058;7.810;2024-02-04T04:27:02;7.30;99.00
1700;DHT22;847;48.058;7.810;2024-02-04T04:29:29;7.30;99.00
1700;DHT22;847;48.058;7.810;2024-02-04T04:31:55;7.30;99.00
1700;DHT22;847;48.058;7.810;2024-02-04T04:34:22;7.20;99.00
1700;DHT22;847;48.058;7.810;2024-02-04T04:36:49;7.30;99.00
1700;DHT22;847;48.058;7.810;2024-02-04T04:39:15;7.30;99.00
1700;DHT22;847;48.058;7.810;2024-02-04T04:41:44;7.30;99.00
1700;DHT22;847;48.058;7.810;2024-02-04T04:44:12;7.20;99.00
1700;DHT22;847;48.058;7.810;2024-02-04T04:46:39;7.20;99.00
1700;DHT22;847;48.058;7.810;2024-02-04T04:49:06;7.20;99.00
1700;DHT22;847;48.058;7.810;2024-02-04T04:51:33;7.20;99.00
1700;DHT22;847;48.058;7.810;2024-02-04T04:54:00;7.20;99.00
1700;DHT22;847;48.058;7.810;2024-02-04T04:56:26;7.20;99.00
1700;DHT22;847;48.058;7.810;2024-02-04T04:58:53;7.20;99.00
1700;DHT22;847;48.058;7.810;2024-02-04T05:01:21;7.20;99.00
1700;DHT22;847;48.058;7.810;2024-02-04T05:03:48;7.20;99.00
1700;DHT22;847;48.058;7.810;2024-02-04T05:06:14;7.20;99.00
1700;DHT22;847;48.058;7.810;2024-02-04T05:08:41;7.20;99.00
1700;DHT22;847;48.058;7.810;2024-02-04T05:11:08;7.20;99.00
1700;DHT22;847;48.058;7.810;2024-02-04T05:13:35;7.20;99.00
1700;DHT22;847;48.058;7.810;2024-02-04T05:16:05;7.20;99.00
1700;DHT22;847;48.058;7.810;2024-02-04T05:18:33;7.10;99.00
1700;DHT22;847;48.058;7.810;2024-02-04T05:21:01;7.10;99.00
1700;DHT22;847;48.058;7.810;2024-02-04T05:23:27;7.10;99.00
1700;DHT22;847;48.058;7.810;2024-02-04T05:25:54;7.10;99.00
1700;DHT22;847;48.058;7.810;2024-02-04T05:28:21;7.10;99.00
1700;DHT22;847;48.058;7.810;2024-02-04T05:30:47;7.10;99.00
1700;DHT22;847;48.058;7.810;2024-02-04T05:33:14;7.10;99.00
1700;DHT22;847;48.058;7.810;2024-02-04T05:35:42;7.00;99.00
1700;DHT22;847;48.058;7.810;2024-02-04T05:38:09;7.00;99.00
1700;DHT22;847;48.058;7.810;2024-02-04T05:40:36;7.00;99.00
1700;DHT22;847;48.058;7.810;2024-02-04T05:43:03;7.00;99.00
1700;DHT22;847;48.058;7.810;2024-02-04T05:45:32;6.90;99.00
1700;DHT22;847;48.058;7.810;2024-02-04T05:47:58;6.90;99.00
1700;DHT22;847;48.058;7.810;2024-02-04T05:50:25;6.90;99.00
1700;DHT22;847;48.058;7.810;2024-02-04T05:52:54;6.90;99.00
1700;DHT22;847;48.058;7.810;2024-02-04T05:55:20;6.90;99.00
1700;DHT22;847;48.058;7.810;2024-02-04T05:57:47;6.90;99.00
1700;DHT22;847;48.058;7.810;2024-02-04T06:00:14;6.90;99.00
1700;DHT22;847;48.058;7.810;2024-02-04T06:02:41;6.90;99.00
1700;DHT22;847;48.058;7.810;2024-02-04T06:05:09;6.90;99.00
1700;DHT22;847;48.058;7.810;2024-02-04T06:07:35;6.90;99.00
1700;DHT22;847;48.058;7.810;2024-02-04T06:10:04;6.90;99.00
1700;DHT22;847;48.058;7.810;2024-02-04T06:12:31;6.90;99.00
1700;DHT22;847;48.058;7.810;2024-02-04T06:14:58;6.80;99.00
1700;DHT22;847;48.058;7.810;2024-02-04T06:17:25;6.80;99.00
1700;DHT22;847;48.058;7.810;2024-02-04T06:19:51;6.80;99.00
1700;DHT22;847;48.058;7.810;2024-02-04T06:22:19;6.80;99.00
1700;DHT22;847;48.058;7.810;2024-02-04T06:24:45;6.80;99.00
1700;DHT22;847;48.058;7.810;2024-02-04T06:27:13;6.80;99.00
1700;DHT22;847;48.058;7.810;2024-02-04T06:29:40;6.80;99.00
1700;DHT22;847;48.058;7.810;2024-02-04T06:32:07;6.80;99.00
1700;DHT22;847;48.058;7.810;2024-02-04T06:34:33;6.80;99.00
1700;DHT22;847;48.058;7.810;2024-02-04T06:37:00;6.90;99.00
1700;DHT22;847;48.058;7.810;2024-02-04T06:39:27;6.90;99.00
1700;DHT22;847;48.058;7.810;2024-02-04T06:41:54;6.90;99.00
1700;DHT22;847;48.058;7.810;2024-02-04T06:44:22;6.90;99.00
1700;DHT22;847;48.058;7.810;2024-02-04T06:46:48;6.90;99.00
1700;DHT22;847;48.058;7.810;2024-02-04T06:49:15;6.90;99.00
1700;DHT22;847;48.058;7.810;2024-02-04T06:51:43;6.90;99.00
1700;DHT22;847;48.058;7.810;2024-02-04T06:54:10;6.90;99.00
1700;DHT22;847;48.058;7.810;2024-02-04T06:56:37;6.90;99.00
1700;DHT22;847;48.058;7.810;2024-02-04T06:59:03;6.90;99.00
1700;DHT22;847;48.058;7.810;2024-02-04T07:01:32;7.00;99.00
1700;DHT22;847;48.058;7.810;2024-02-04T07:03:58;7.00;99.00
1700;DHT22;847;48.058;7.810;2024-02-04T07:06:25;7.00;99.00
1700;DHT22;847;48.058;7.810;2024-02-04T07:08:52;7.00;99.00
1700;DHT22;847;48.058;7.810;2024-02-04T07:11:19;6.90;99.00
1700;DHT22;847;48.058;7.810;2024-02-04T07:13:45;6.90;99.00
1700;DHT22;847;48.058;7.810;2024-02-04T07:16:12;6.90;99.00
1700;DHT22;847;48.058;7.810;2024-02-04T07:18:40;6.90;99.00
1700;DHT22;847;48.058;7.810;2024-02-04T07:21:07;6.90;99.00
1700;DHT22;847;48.058;7.810;2024-02-04T07:23:34;6.90;99.00
1700;DHT22;847;48.058;7.810;2024-02-04T07:26:00;6.90;99.00
1700;DHT22;847;48.058;7.810;2024-02-04T07:28:27;6.90;99.00
1700;DHT22;847;48.058;7.810;2024-02-04T07:30:54;6.90;99.00
1700;DHT22;847;48.058;7.810;2024-02-04T07:33:20;6.90;99.00
1700;DHT22;847;48.058;7.810;2024-02-04T07:35:48;6.90;99.00
1700;DHT22;847;48.058;7.810;2024-02-04T07:38:15;7.00;99.00
1700;DHT22;847;48.058;7.810;2024-02-04T07:40:42;7.00;99.00
1700;DHT22;847;48.058;7.810;2024-02-04T07:43:09;7.00;99.00
1700;DHT22;847;48.058;7.810;2024-02-04T07:45:35;7.00;99.00
1700;DHT22;847;48.058;7.810;2024-02-04T07:48:03;6.90;99.00
1700;DHT22;847;48.058;7.810;2024-02-04T07:50:30;7.00;99.00
1700;DHT22;847;48.058;7.810;2024-02-04T07:52:58;7.00;99.00
1700;DHT22;847;48.058;7.810;2024-02-04T07:55:25;7.00;99.00
1700;DHT22;847;48.058;7.810;2024-02-04T07:57:52;7.00;99.00
1700;DHT22;847;48.058;7.810;2024-02-04T08:00:19;7.00;99.00
1700;DHT22;847;48.058;7.810;2024-02-04T08:02:45;7.10;99.00
1700;DHT22;847;48.058;7.810;2024-02-04T08:05:12;7.10;99.00
1700;DHT22;847;48.058;7.810;2024-02-04T08:07:39;7.10;99.00
1700;DHT22;847;48.058;7.810;2024-02-04T08:10:08;7.10;99.00
1700;DHT22;847;48.058;7.810;2024-02-04T08:12:35;7.10;99.00
1700;DHT22;847;48.058;7.810;2024-02-04T08:15:02;7.10;99.00
1700;DHT22;847;48.058;7.810;2024-02-04T08:17:30;7.20;99.00
1700;DHT22;847;48.058;7.810;2024-02-04T08:19:57;7.20;99.00
1700;DHT22;847;48.058;7.810;2024-02-04T08:22:24;7.20;99.00
1700;DHT22;847;48.058;7.810;2024-02-04T08:24:52;7.20;99.00
1700;DHT22;847;48.058;7.810;2024-02-04T08:27:20;7.30;99.00
1700;DHT22;847;48.058;7.810;2024-02-04T08:29:47;7.30;99.00
1700;DHT22;847;48.058;7.810;2024-02-04T08:32:14;7.30;99.00
1700;DHT22;847;48.058;7.810;2024-02-04T08:34:41;7.40;99.00
1700;DHT22;847;48.058;7.810;2024-02-04T08:37:19;7.40;99.00
1700;DHT22;847;48.058;7.810;2024-02-04T08:39:46;7.40;99.00
1700;DHT22;847;48.058;7.810;2024-02-04T08:42:13;7.50;99.00
1700;DHT22;847;48.058;7.810;2024-02-04T08:44:41;7.50;99.00
1700;DHT22;847;48.058;7.810;2024-02-04T08:47:08;7.60;99.00
1700;DHT22;847;48.058;7.810;2024-02-04T08:49:35;7.60;99.00
1700;DHT22;847;48.058;7.810;2024-02-04T08:52:03;7.70;99.00
1700;DHT22;847;48.058;7.810;2024-02-04T08:54:29;7.70;99.00
1700;DHT22;847;48.058;7.810;2024-02-04T08:56:56;7.70;99.00
1700;DHT22;847;48.058;7.810;2024-02-04T08:59:23;7.70;99.00
1700;DHT22;847;48.058;7.810;2024-02-04T09:01:51;7.80;99.00
1700;DHT22;847;48.058;7.810;2024-02-04T09:04:18;7.80;99.00
1700;DHT22;847;48.058;7.810;2024-02-04T09:06:44;7.80;99.00
1700;DHT22;847;48.058;7.810;2024-02-04T09:09:11;7.80;99.00
1700;DHT22;847;48.058;7.810;2024-02-04T09:11:38;7.90;99.00
1700;DHT22;847;48.058;7.810;2024-02-04T09:14:05;7.90;99.00
1700;DHT22;847;48.058;7.810;2024-02-04T09:16:32;8.00;99.00
1700;DHT22;847;48.058;7.810;2024-02-04T09:19:00;8.00;99.00
1700;DHT22;847;48.058;7.810;2024-02-04T09:21:27;8.00;99.00
1700;DHT22;847;48.058;7.810;2024-02-04T09:23:54;8.00;99.00
1700;DHT22;847;48.058;7.810;2024-02-04T09:29:10;8.10;99.00
1700;DHT22;847;48.058;7.810;2024-02-04T09:31:37;8.10;99.00
1700;DHT22;847;48.058;7.810;2024-02-04T09:34:05;8.20;99.00
1700;DHT22;847;48.058;7.810;2024-02-04T09:36:32;8.20;99.00
1700;DHT22;847;48.058;7.810;2024-02-04T09:38:58;8.20;99.00
1700;DHT22;847;48.058;7.810;2024-02-04T09:41:25;8.20;99.00
1700;DHT22;847;48.058;7.810;2024-02-04T09:43:52;8.30;99.00
1700;DHT22;847;48.058;7.810;2024-02-04T09:46:19;8.30;99.00
1700;DHT22;847;48.058;7.810;2024-02-04T09:48:47;8.30;99.00
1700;DHT22;847;48.058;7.810;2024-02-04T09:51:16;8.40;99.00
1700;DHT22;847;48.058;7.810;2024-02-04T09:53:44;8.40;99.00
1700;DHT22;847;48.058;7.810;2024-02-04T09:56:12;8.50;99.00
1700;DHT22;847;48.058;7.810;2024-02-04T09:58:38;8.50;99.00
1700;DHT22;847;48.058;7.810;2024-02-04T10:01:05;8.60;99.00
1700;DHT22;847;48.058;7.810;2024-02-04T10:03:34;8.60;99.00
1700;DHT22;847;48.058;7.810;2024-02-04T10:06:00;8.60;99.00
1700;DHT22;847;48.058;7.810;2024-02-04T10:08:29;8.50;99.00
1700;DHT22;847;48.058;7.810;2024-02-04T10:10:55;8.60;99.00
1700;DHT22;847;48.058;7.810;2024-02-04T10:13:23;8.70;99.00
1700;DHT22;847;48.058;7.810;2024-02-04T10:15:51;8.70;99.00
1700;DHT22;847;48.058;7.810;2024-02-04T10:18:18;8.80;99.00
1700;DHT22;847;48.058;7.810;2024-02-04T10:20:45;8.90;99.00
1700;DHT22;847;48.058;7.810;2024-02-04T10:23:12;8.80;99.00
1700;DHT22;847;48.058;7.810;2024-02-04T10:25:40;8.80;99.00
1700;DHT22;847;48.058;7.810;2024-02-04T10:28:07;8.90;99.00
1700;DHT22;847;48.058;7.810;2024-02-04T10:30:37;9.00;99.00
1700;DHT22;847;48.058;7.810;2024-02-04T10:33:04;9.00;99.00
1700;DHT22;847;48.058;7.810;2024-02-04T10:35:31;9.10;99.00
1700;DHT22;847;48.058;7.810;2024-02-04T10:37:58;9.10;99.00
1700;DHT22;847;48.058;7.810;2024-02-04T10:40:24;9.10;99.00
1700;DHT22;847;48.058;7.810;2024-02-04T10:42:55;9.20;99.00
1700;DHT22;847;48.058;7.810;2024-02-04T10:45:24;9.30;99.00
1700;DHT22;847;48.058;7.810;2024-02-04T10:47:56;9.30;99.00
1700;DHT22;847;48.058;7.810;2024-02-04T10:50:24;9.40;99.00
1700;DHT22;847;48.058;7.810;2024-02-04T10:52:52;9.40;99.00
1700;DHT22;847;48.058;7.810;2024-02-04T10:55:21;9.40;98.60
1700;DHT22;847;48.058;7.810;2024-02-04T10:57:54;9.40;98.60
1700;DHT22;847;48.058;7.810;2024-02-04T11:00:22;9.50;98.80
1700;DHT22;847;48.058;7.810;2024-02-04T11:02:49;9.50;98.60
1700;DHT22;847;48.058;7.810;2024-02-04T11:05:19;9.60;98.10
1700;DHT22;847;48.058;7.810;2024-02-04T11:07:47;9.60;98.10
1700;DHT22;847;48.058;7.810;2024-02-04T11:10:15;9.60;98.00
1700;DHT22;847;48.058;7.810;2024-02-04T11:12:44;9.60;97.60
1700;DHT22;847;48.058;7.810;2024-02-04T11:15:15;9.60;98.00
1700;DHT22;847;48.058;7.810;2024-02-04T11:17:57;9.60;97.80
1700;DHT22;847;48.058;7.810;2024-02-04T11:20:57;9.60;97.50
1700;DHT22;847;48.058;7.810;2024-02-04T11:23:37;9.60;98.10
1700;DHT22;847;48.058;7.810;2024-02-04T11:26:06;9.60;98.30
1700;DHT22;847;48.058;7.810;2024-02-04T11:28:33;9.60;98.10
1700;DHT22;847;48.058;7.810;2024-02-04T11:31:01;9.50;97.80
1700;DHT22;847;48.058;7.810;2024-02-04T11:33:28;9.50;98.10
1700;DHT22;847;48.058;7.810;2024-02-04T11:35:59;9.60;98.70
1700;DHT22;847;48.058;7.810;2024-02-04T11:38:30;9.60;98.60
1700;DHT22;847;48.058;7.810;2024-02-04T11:40:58;9.70;97.40
1700;DHT22;847;48.058;7.810;2024-02-04T11:43:24;9.60;97.90
1700;DHT22;847;48.058;7.810;2024-02-04T11:45:52;9.60;98.80
1700;DHT22;847;48.058;7.810;2024-02-04T11:48:29;9.70;98.40
1700;DHT22;847;48.058;7.810;2024-02-04T11:50:57;9.80;98.30
1700;DHT22;847;48.058;7.810;2024-02-04T11:53:24;9.90;98.10
1700;DHT22;847;48.058;7.810;2024-02-04T11:55:54;9.90;97.20
1700;DHT22;847;48.058;7.810;2024-02-04T11:58:21;9.90;97.90
1700;DHT22;847;48.058;7.810;2024-02-04T12:00:51;9.90;97.90
1700;DHT22;847;48.058;7.810;2024-02-04T12:03:30;9.90;97.80
1700;DHT22;847;48.058;7.810;2024-02-04T12:05:57;9.90;97.70
1700;DHT22;847;48.058;7.810;2024-02-04T12:08:25;9.90;97.60
1700;DHT22;847;48.058;7.810;2024-02-04T12:10:52;9.90;97.40
1700;DHT22;847;48.058;7.810;2024-02-04T12:13:19;9.90;97.40
1700;DHT22;847;48.058;7.810;2024-02-04T12:15:47;9.90;97.60
1700;DHT22;847;48.058;7.810;2024-02-04T12:18:14;9.90;97.80
1700;DHT22;847;48.058;7.810;2024-02-04T12:20:47;9.90;97.60
1700;DHT22;847;48.058;7.810;2024-02-04T12:23:18;9.80;97.50
1700;DHT22;847;48.058;7.810;2024-02-04T12:25:47;9.80;97.70
1700;DHT22;847;48.058;7.810;2024-02-04T12:28:14;9.90;97.90
1700;DHT22;847;48.058;7.810;2024-02-04T12:30:41;9.90;97.80
1700;DHT22;847;48.058;7.810;2024-02-04T12:33:07;9.90;97.70
1700;DHT22;847;48.058;7.810;2024-02-04T12:35:35;9.90;97.50
1700;DHT22;847;48.058;7.810;2024-02-04T12:38:03;9.90;97.80
1700;DHT22;847;48.058;7.810;2024-02-04T12:40:32;9.90;97.40
1700;DHT22;847;48.058;7.810;2024-02-04T12:43:00;9.90;97.60
1700;DHT22;847;48.058;7.810;2024-02-04T12:45:28;9.90;97.70
1700;DHT22;847;48.058;7.810;2024-02-04T12:47:56;9.90;98.00
1700;DHT22;847;48.058;7.810;2024-02-04T12:50:24;9.90;98.00
1700;DHT22;847;48.058;7.810;2024-02-04T12:53:04;10.00;98.00
1700;DHT22;847;48.058;7.810;2024-02-04T12:55:34;9.90;98.00
1700;DHT22;847;48.058;7.810;2024-02-04T12:58:02;9.90;97.90
1700;DHT22;847;48.058;7.810;2024-02-04T13:00:30;9.90;98.20
1700;DHT22;847;48.058;7.810;2024-02-04T13:02:57;9.90;98.10
1700;DHT22;847;48.058;7.810;2024-02-04T13:05:24;9.90;98.10
1700;DHT22;847;48.058;7.810;2024-02-04T13:07:53;9.90;98.00
1700;DHT22;847;48.058;7.810;2024-02-04T13:10:23;9.90;97.80
1700;DHT22;847;48.058;7.810;2024-02-04T13:13:00;9.80;97.70
1700;DHT22;847;48.058;7.810;2024-02-04T13:15:27;9.80;98.10
1700;DHT22;847;48.058;7.810;2024-02-04T13:17:55;9.80;98.30
1700;DHT22;847;48.058;7.810;2024-02-04T13:20:22;9.80;98.10
1700;DHT22;847;48.058;7.810;2024-02-04T13:22:48;9.80;98.10
1700;DHT22;847;48.058;7.810;2024-02-04T13:25:15;9.80;98.20
1700;DHT22;847;48.058;7.810;2024-02-04T13:27:43;9.70;98.30
1700;DHT22;847;48.058;7.810;2024-02-04T13:30:10;9.80;98.30
1700;DHT22;847;48.058;7.810;2024-02-04T13:32:38;9.70;98.20
1700;DHT22;847;48.058;7.810;2024-02-04T13:35:06;9.80;98.20
1700;DHT22;847;48.058;7.810;2024-02-04T13:37:34;9.70;97.90
1700;DHT22;847;48.058;7.810;2024-02-04T13:40:03;9.80;98.10
1700;DHT22;847;48.058;7.810;2024-02-04T13:42:31;9.80;98.30
1700;DHT22;847;48.058;7.810;2024-02-04T13:44:59;9.80;98.40
1700;DHT22;847;48.058;7.810;2024-02-04T13:47:27;9.70;98.50
1700;DHT22;847;48.058;7.810;2024-02-04T13:49:54;9.70;98.30
1700;DHT22;847;48.058;7.810;2024-02-04T13:52:22;9.70;98.10
1700;DHT22;847;48.058;7.810;2024-02-04T13:54:49;9.70;98.20
1700;DHT22;847;48.058;7.810;2024-02-04T13:57:16;9.70;98.20
1700;DHT22;847;48.058;7.810;2024-02-04T13:59:42;9.70;98.20
1700;DHT22;847;48.058;7.810;2024-02-04T14:02:11;9.70;98.30
1700;DHT22;847;48.058;7.810;2024-02-04T14:04:37;9.70;98.60
1700;DHT22;847;48.058;7.810;2024-02-04T14:07:04;9.70;98.60
1700;DHT22;847;48.058;7.810;2024-02-04T14:09:31;9.70;98.60
1700;DHT22;847;48.058;7.810;2024-02-04T14:11:58;9.70;98.90
1700;DHT22;847;48.058;7.810;2024-02-04T14:14:25;9.70;99.00
1700;DHT22;847;48.058;7.810;2024-02-04T14:16:51;9.70;98.60
1700;DHT22;847;48.058;7.810;2024-02-04T14:19:20;9.70;98.50
1700;DHT22;847;48.058;7.810;2024-02-04T14:21:48;9.70;98.40
1700;DHT22;847;48.058;7.810;2024-02-04T14:24:15;9.60;98.60
1700;DHT22;847;48.058;7.810;2024-02-04T14:26:42;9.60;98.70
1700;DHT22;847;48.058;7.810;2024-02-04T14:29:09;9.60;98.60
1700;DHT22;847;48.058;7.810;2024-02-04T14:31:36;9.60;98.80
1700;DHT22;847;48.058;7.810;2024-02-04T14:34:03;9.60;98.70
1700;DHT22;847;48.058;7.810;2024-02-04T14:36:31;9.60;98.90
1700;DHT22;847;48.058;7.810;2024-02-04T14:38:58;9.60;98.90
1700;DHT22;847;48.058;7.810;2024-02-04T14:41:26;9.50;99.00
1700;DHT22;847;48.058;7.810;2024-02-04T14:43:53;9.50;99.00
1700;DHT22;847;48.058;7.810;2024-02-04T14:46:20;9.60;99.00
1700;DHT22;847;48.058;7.810;2024-02-04T14:48:48;9.50;99.00
1700;DHT22;847;48.058;7.810;2024-02-04T14:51:17;9.50;99.00
1700;DHT22;847;48.058;7.810;2024-02-04T14:53:46;9.50;99.00
1700;DHT22;847;48.058;7.810;2024-02-04T14:56:13;9.40;99.00
1700;DHT22;847;48.058;7.810;2024-02-04T14:58:40;9.40;99.00
1700;DHT22;847;48.058;7.810;2024-02-04T15:01:08;9.50;99.00
1700;DHT22;847;48.058;7.810;2024-02-04T15:03:36;9.50;99.00
1700;DHT22;847;48.058;7.810;2024-02-04T15:06:03;9.40;99.00
1700;DHT22;847;48.058;7.810;2024-02-04T15:08:39;9.30;99.00
1700;DHT22;847;48.058;7.810;2024-02-04T15:11:07;9.30;99.00
1700;DHT22;847;48.058;7.810;2024-02-04T15:13:37;9.40;99.00
1700;DHT22;847;48.058;7.810;2024-02-04T15:16:05;9.40;99.00
1700;DHT22;847;48.058;7.810;2024-02-04T15:18:35;9.40;99.00
1700;DHT22;847;48.058;7.810;2024-02-04T15:21:02;9.40;99.00
1700;DHT22;847;48.058;7.810;2024-02-04T15:23:30;9.30;99.00
1700;DHT22;847;48.058;7.810;2024-02-04T15:25:57;9.20;99.00
1700;DHT22;847;48.058;7.810;2024-02-04T15:28:27;9.20;99.00
1700;DHT22;847;48.058;7.810;2024-02-04T15:30:54;9.20;99.00
1700;DHT22;847;48.058;7.810;2024-02-04T15:33:23;9.20;99.00
1700;DHT22;847;48.058;7.810;2024-02-04T15:35:50;9.20;99.00
1700;DHT22;847;48.058;7.810;2024-02-04T15:38:17;9.10;99.00
1700;DHT22;847;48.058;7.810;2024-02-04T15:40:44;9.10;99.00
1700;DHT22;847;48.058;7.810;2024-02-04T15:43:11;9.10;99.00
1700;DHT22;847;48.058;7.810;2024-02-04T15:45:39;9.10;99.00
1700;DHT22;847;48.058;7.810;2024-02-04T15:48:08;9.10;99.00
1700;DHT22;847;48.058;7.810;2024-02-04T15:50:36;9.10;99.00
1700;DHT22;847;48.058;7.810;2024-02-04T15:53:04;9.10;99.00
1700;DHT22;847;48.058;7.810;2024-02-04T15:55:31;9.10;99.00
1700;DHT22;847;48.058;7.810;2024-02-04T15:58:00;9.10;99.00
1700;DHT22;847;48.058;7.810;2024-02-04T16:00:30;9.10;99.00
1700;DHT22;847;48.058;7.810;2024-02-04T16:02:59;9.10;99.00
1700;DHT22;847;48.058;7.810;2024-02-04T16:05:27;9.10;99.00
1700;DHT22;847;48.058;7.810;2024-02-04T16:07:55;9.10;99.00
1700;DHT22;847;48.058;7.810;2024-02-04T16:10:22;9.10;99.00
1700;DHT22;847;48.058;7.810;2024-02-04T16:12:53;9.00;99.00
1700;DHT22;847;48.058;7.810;2024-02-04T16:15:23;9.10;99.00
1700;DHT22;847;48.058;7.810;2024-02-04T16:17:51;9.00;99.00
1700;DHT22;847;48.058;7.810;2024-02-04T16:20:20;9.00;99.00
1700;DHT22;847;48.058;7.810;2024-02-04T16:22:48;9.00;99.00
1700;DHT22;847;48.058;7.810;2024-02-04T16:25:16;9.00;99.00
1700;DHT22;847;48.058;7.810;2024-02-04T16:27:43;8.90;99.00
1700;DHT22;847;48.058;7.810;2024-02-04T16:30:11;8.90;99.00
1700;DHT22;847;48.058;7.810;2024-02-04T16:32:39;8.90;99.00
1700;DHT22;847;48.058;7.810;2024-02-04T16:35:07;8.80;99.00
1700;DHT22;847;48.058;7.810;2024-02-04T16:37:36;8.80;99.00
1700;DHT22;847;48.058;7.810;2024-02-04T16:40:03;8.80;99.00